首页
METAR-TAF:

METAR-TAF

机场 :

Dodge Center Airport (Dodge Center Municipal)

Dodge Center, 明尼蘇達州, 美国

纬度: 44-01-05N, 经度: 092-49-53W, 海拔: 398米

当前天气观测

该预报发布于26分钟前的17:15 UTC
风速5节,风向西
温度 29°C
湿度 29%
气压 1009 hPa
能見度: 16.1公里
天空无云

METAR: KTOB 041715Z AUTO 27005KT 10SM CLR 29/09 A2980 RMK AO2 PWINO

时间: 12:41 (17:41 UTC)


TAF: 丢失

超过4000个机场的气象观测和天气预报(METAR&TAF报告)。

可查询的气象台以黄色和红色小点在地图上表示。

将鼠标移到小点上方,可查看气象台名称。

然后点击查看天气观测和预报。

如需切换地图:点击带黑十字的绿色按钮放大地图;点击带横线的绿色按钮缩小地图;或者点击绿色箭头查看邻近地区的地图。


METAR-TAF: